sensor_id;sensor_type;location;lat;lon;timestamp;temperature;humidity
2226;DHT22;1119;48.288;8.726;2023-12-29T00:01:03;8.20;99.90
2226;DHT22;1119;48.288;8.726;2023-12-29T00:03:31;8.20;99.90
2226;DHT22;1119;48.288;8.726;2023-12-29T00:06:02;8.20;99.90
2226;DHT22;1119;48.288;8.726;2023-12-29T00:08:29;8.20;99.90
2226;DHT22;1119;48.288;8.726;2023-12-29T00:10:57;8.20;99.90
2226;DHT22;1119;48.288;8.726;2023-12-29T00:13:25;8.20;99.90
2226;DHT22;1119;48.288;8.726;2023-12-29T00:15:53;8.20;99.90
2226;DHT22;1119;48.288;8.726;2023-12-29T00:18:21;8.20;99.90
2226;DHT22;1119;48.288;8.726;2023-12-29T00:20:49;8.20;99.90
2226;DHT22;1119;48.288;8.726;2023-12-29T00:23:16;8.20;99.90
2226;DHT22;1119;48.288;8.726;2023-12-29T00:25:44;8.20;99.90
2226;DHT22;1119;48.288;8.726;2023-12-29T00:28:11;8.20;99.90
2226;DHT22;1119;48.288;8.726;2023-12-29T00:30:40;8.20;99.90
2226;DHT22;1119;48.288;8.726;2023-12-29T00:33:07;8.30;99.90
2226;DHT22;1119;48.288;8.726;2023-12-29T00:35:37;8.30;99.90
2226;DHT22;1119;48.288;8.726;2023-12-29T00:38:05;8.30;99.90
2226;DHT22;1119;48.288;8.726;2023-12-29T00:40:33;8.50;99.90
2226;DHT22;1119;48.288;8.726;2023-12-29T00:43:01;8.40;99.90
2226;DHT22;1119;48.288;8.726;2023-12-29T00:45:28;8.40;99.90
2226;DHT22;1119;48.288;8.726;2023-12-29T00:48:00;8.40;99.90
2226;DHT22;1119;48.288;8.726;2023-12-29T00:50:27;8.80;99.90
2226;DHT22;1119;48.288;8.726;2023-12-29T00:52:54;8.50;99.90
2226;DHT22;1119;48.288;8.726;2023-12-29T00:55:21;8.50;99.90
2226;DHT22;1119;48.288;8.726;2023-12-29T00:57:49;8.50;99.90
2226;DHT22;1119;48.288;8.726;2023-12-29T01:00:16;8.70;99.90
2226;DHT22;1119;48.288;8.726;2023-12-29T01:02:44;8.40;99.90
2226;DHT22;1119;48.288;8.726;2023-12-29T01:05:16;8.80;99.90
2226;DHT22;1119;48.288;8.726;2023-12-29T01:07:44;8.40;99.90
2226;DHT22;1119;48.288;8.726;2023-12-29T01:10:12;8.30;99.90
2226;DHT22;1119;48.288;8.726;2023-12-29T01:12:39;8.30;99.90
2226;DHT22;1119;48.288;8.726;2023-12-29T01:15:07;8.20;99.90
2226;DHT22;1119;48.288;8.726;2023-12-29T01:17:35;8.20;99.90
2226;DHT22;1119;48.288;8.726;2023-12-29T01:20:03;8.20;99.90
2226;DHT22;1119;48.288;8.726;2023-12-29T01:22:32;8.20;99.90
2226;DHT22;1119;48.288;8.726;2023-12-29T01:25:00;8.30;99.90
2226;DHT22;1119;48.288;8.726;2023-12-29T01:27:28;8.10;99.90
2226;DHT22;1119;48.288;8.726;2023-12-29T01:29:56;8.10;99.90
2226;DHT22;1119;48.288;8.726;2023-12-29T01:32:23;8.00;99.90
2226;DHT22;1119;48.288;8.726;2023-12-29T01:34:52;8.10;99.90
2226;DHT22;1119;48.288;8.726;2023-12-29T01:37:19;8.00;99.90
2226;DHT22;1119;48.288;8.726;2023-12-29T01:39:48;8.00;99.90
2226;DHT22;1119;48.288;8.726;2023-12-29T01:42:15;8.00;99.90
2226;DHT22;1119;48.288;8.726;2023-12-29T01:44:42;8.00;99.90
2226;DHT22;1119;48.288;8.726;2023-12-29T01:47:13;7.90;99.90
2226;DHT22;1119;48.288;8.726;2023-12-29T01:49:44;7.90;99.90
2226;DHT22;1119;48.288;8.726;2023-12-29T01:52:14;7.90;99.90
2226;DHT22;1119;48.288;8.726;2023-12-29T01:54:46;7.80;99.90
2226;DHT22;1119;48.288;8.726;2023-12-29T01:57:16;7.90;99.90
2226;DHT22;1119;48.288;8.726;2023-12-29T01:59:45;7.80;99.90
2226;DHT22;1119;48.288;8.726;2023-12-29T02:02:15;7.80;99.90
2226;DHT22;1119;48.288;8.726;2023-12-29T02:04:42;7.80;99.90
2226;DHT22;1119;48.288;8.726;2023-12-29T02:07:10;7.80;99.90
2226;DHT22;1119;48.288;8.726;2023-12-29T02:09:38;7.80;99.90
2226;DHT22;1119;48.288;8.726;2023-12-29T02:12:07;7.70;99.90
2226;DHT22;1119;48.288;8.726;2023-12-29T02:14:35;7.70;99.90
2226;DHT22;1119;48.288;8.726;2023-12-29T02:17:08;7.70;99.90
2226;DHT22;1119;48.288;8.726;2023-12-29T02:19:39;7.60;99.90
2226;DHT22;1119;48.288;8.726;2023-12-29T02:22:08;7.70;99.90
2226;DHT22;1119;48.288;8.726;2023-12-29T02:24:36;7.60;99.90
2226;DHT22;1119;48.288;8.726;2023-12-29T02:27:14;7.60;99.90
2226;DHT22;1119;48.288;8.726;2023-12-29T02:29:56;7.60;99.90
2226;DHT22;1119;48.288;8.726;2023-12-29T02:32:33;7.60;99.90
2226;DHT22;1119;48.288;8.726;2023-12-29T02:35:01;7.60;99.90
2226;DHT22;1119;48.288;8.726;2023-12-29T02:37:30;8.00;99.90
2226;DHT22;1119;48.288;8.726;2023-12-29T02:39:58;7.60;99.90
2226;DHT22;1119;48.288;8.726;2023-12-29T02:42:27;7.60;99.90
2226;DHT22;1119;48.288;8.726;2023-12-29T02:44:54;7.60;99.90
2226;DHT22;1119;48.288;8.726;2023-12-29T02:47:22;7.60;99.90
2226;DHT22;1119;48.288;8.726;2023-12-29T02:49:49;7.60;99.90
2226;DHT22;1119;48.288;8.726;2023-12-29T02:52:16;7.60;99.90
2226;DHT22;1119;48.288;8.726;2023-12-29T02:54:44;7.60;99.90
2226;DHT22;1119;48.288;8.726;2023-12-29T02:57:11;7.70;99.90
2226;DHT22;1119;48.288;8.726;2023-12-29T02:59:40;7.70;99.90
2226;DHT22;1119;48.288;8.726;2023-12-29T03:02:07;7.40;99.90
2226;DHT22;1119;48.288;8.726;2023-12-29T03:08:01;7.60;99.90
2226;DHT22;1119;48.288;8.726;2023-12-29T03:10:28;7.60;99.90
2226;DHT22;1119;48.288;8.726;2023-12-29T03:12:55;7.50;99.90
2226;DHT22;1119;48.288;8.726;2023-12-29T03:15:24;7.50;99.90
2226;DHT22;1119;48.288;8.726;2023-12-29T03:17:51;7.50;99.90
2226;DHT22;1119;48.288;8.726;2023-12-29T03:20:18;7.60;99.90
2226;DHT22;1119;48.288;8.726;2023-12-29T03:22:46;7.60;99.90
2226;DHT22;1119;48.288;8.726;2023-12-29T03:25:14;7.60;99.90
2226;DHT22;1119;48.288;8.726;2023-12-29T03:27:44;7.60;99.90
2226;DHT22;1119;48.288;8.726;2023-12-29T03:30:12;7.70;99.90
2226;DHT22;1119;48.288;8.726;2023-12-29T03:32:40;7.60;99.90
2226;DHT22;1119;48.288;8.726;2023-12-29T03:35:08;7.60;99.90
2226;DHT22;1119;48.288;8.726;2023-12-29T03:37:35;7.60;99.90
2226;DHT22;1119;48.288;8.726;2023-12-29T03:40:03;7.70;99.90
2226;DHT22;1119;48.288;8.726;2023-12-29T03:42:31;7.70;99.90
2226;DHT22;1119;48.288;8.726;2023-12-29T03:45:00;7.40;99.90
2226;DHT22;1119;48.288;8.726;2023-12-29T03:47:27;7.50;99.90
2226;DHT22;1119;48.288;8.726;2023-12-29T03:49:57;7.70;99.90
2226;DHT22;1119;48.288;8.726;2023-12-29T03:52:25;7.80;99.90
2226;DHT22;1119;48.288;8.726;2023-12-29T03:54:52;7.80;99.90
2226;DHT22;1119;48.288;8.726;2023-12-29T03:57:19;7.70;99.90
2226;DHT22;1119;48.288;8.726;2023-12-29T03:59:47;7.80;99.90
2226;DHT22;1119;48.288;8.726;2023-12-29T04:02:14;7.90;99.90
2226;DHT22;1119;48.288;8.726;2023-12-29T04:04:43;7.80;99.90
2226;DHT22;1119;48.288;8.726;2023-12-29T04:07:12;7.80;99.90
2226;DHT22;1119;48.288;8.726;2023-12-29T04:09:39;7.90;99.90
2226;DHT22;1119;48.288;8.726;2023-12-29T04:12:07;7.90;99.90
2226;DHT22;1119;48.288;8.726;2023-12-29T04:14:34;7.80;99.90
2226;DHT22;1119;48.288;8.726;2023-12-29T04:17:02;7.80;99.90
2226;DHT22;1119;48.288;8.726;2023-12-29T04:19:31;7.80;99.90
2226;DHT22;1119;48.288;8.726;2023-12-29T04:21:58;7.90;99.90
2226;DHT22;1119;48.288;8.726;2023-12-29T04:24:27;7.90;99.90
2226;DHT22;1119;48.288;8.726;2023-12-29T04:26:54;7.90;99.90
2226;DHT22;1119;48.288;8.726;2023-12-29T04:29:21;7.90;99.90
2226;DHT22;1119;48.288;8.726;2023-12-29T04:31:49;7.90;99.90
2226;DHT22;1119;48.288;8.726;2023-12-29T04:34:16;7.90;99.90
2226;DHT22;1119;48.288;8.726;2023-12-29T04:36:44;7.90;99.90
2226;DHT22;1119;48.288;8.726;2023-12-29T04:39:11;8.00;99.90
2226;DHT22;1119;48.288;8.726;2023-12-29T04:41:40;8.00;99.90
2226;DHT22;1119;48.288;8.726;2023-12-29T04:44:07;8.00;99.90
2226;DHT22;1119;48.288;8.726;2023-12-29T04:46:34;8.00;99.90
2226;DHT22;1119;48.288;8.726;2023-12-29T04:49:02;8.00;99.90
2226;DHT22;1119;48.288;8.726;2023-12-29T04:51:29;8.10;99.90
2226;DHT22;1119;48.288;8.726;2023-12-29T04:53:57;8.10;99.90
2226;DHT22;1119;48.288;8.726;2023-12-29T04:56:27;8.10;99.90
2226;DHT22;1119;48.288;8.726;2023-12-29T04:58:56;8.10;99.90
2226;DHT22;1119;48.288;8.726;2023-12-29T05:01:25;8.10;99.90
2226;DHT22;1119;48.288;8.726;2023-12-29T05:03:53;8.20;99.90
2226;DHT22;1119;48.288;8.726;2023-12-29T05:06:21;8.10;99.90
2226;DHT22;1119;48.288;8.726;2023-12-29T05:08:48;8.10;99.90
2226;DHT22;1119;48.288;8.726;2023-12-29T05:11:15;8.20;99.90
2226;DHT22;1119;48.288;8.726;2023-12-29T05:13:43;8.10;99.90
2226;DHT22;1119;48.288;8.726;2023-12-29T05:16:11;8.20;99.90
2226;DHT22;1119;48.288;8.726;2023-12-29T05:18:40;8.20;99.90
2226;DHT22;1119;48.288;8.726;2023-12-29T05:21:14;8.20;99.90
2226;DHT22;1119;48.288;8.726;2023-12-29T05:23:44;8.20;99.90
2226;DHT22;1119;48.288;8.726;2023-12-29T05:26:12;8.20;99.90
2226;DHT22;1119;48.288;8.726;2023-12-29T05:28:39;8.20;99.90
2226;DHT22;1119;48.288;8.726;2023-12-29T05:31:12;8.20;99.90
2226;DHT22;1119;48.288;8.726;2023-12-29T05:33:44;8.20;99.90
2226;DHT22;1119;48.288;8.726;2023-12-29T05:36:14;8.20;99.90
2226;DHT22;1119;48.288;8.726;2023-12-29T05:38:48;8.20;99.90
2226;DHT22;1119;48.288;8.726;2023-12-29T05:41:16;8.30;99.90
2226;DHT22;1119;48.288;8.726;2023-12-29T05:43:43;8.20;99.90
2226;DHT22;1119;48.288;8.726;2023-12-29T05:46:12;8.20;99.90
2226;DHT22;1119;48.288;8.726;2023-12-29T05:48:42;8.20;99.90
2226;DHT22;1119;48.288;8.726;2023-12-29T05:51:10;8.20;99.90
2226;DHT22;1119;48.288;8.726;2023-12-29T05:53:42;8.30;99.90
2226;DHT22;1119;48.288;8.726;2023-12-29T05:56:12;8.30;99.90
2226;DHT22;1119;48.288;8.726;2023-12-29T05:58:40;8.40;99.90
2226;DHT22;1119;48.288;8.726;2023-12-29T06:01:08;8.40;99.90
2226;DHT22;1119;48.288;8.726;2023-12-29T06:03:38;8.40;99.90
2226;DHT22;1119;48.288;8.726;2023-12-29T06:06:07;8.40;99.90
2226;DHT22;1119;48.288;8.726;2023-12-29T06:08:35;8.40;99.90
2226;DHT22;1119;48.288;8.726;2023-12-29T06:11:03;8.40;99.90
2226;DHT22;1119;48.288;8.726;2023-12-29T06:13:33;8.40;99.90
2226;DHT22;1119;48.288;8.726;2023-12-29T06:16:00;8.40;99.90
2226;DHT22;1119;48.288;8.726;2023-12-29T06:18:28;8.50;99.90
2226;DHT22;1119;48.288;8.726;2023-12-29T06:20:56;8.40;99.90
2226;DHT22;1119;48.288;8.726;2023-12-29T06:23:24;8.40;99.90
2226;DHT22;1119;48.288;8.726;2023-12-29T06:25:51;8.40;99.90
2226;DHT22;1119;48.288;8.726;2023-12-29T06:28:19;8.40;99.90
2226;DHT22;1119;48.288;8.726;2023-12-29T06:30:48;8.40;99.90
2226;DHT22;1119;48.288;8.726;2023-12-29T06:33:15;8.50;99.90
2226;DHT22;1119;48.288;8.726;2023-12-29T06:35:47;8.60;99.90
2226;DHT22;1119;48.288;8.726;2023-12-29T06:38:15;8.50;99.90
2226;DHT22;1119;48.288;8.726;2023-12-29T06:40:43;8.40;99.90
2226;DHT22;1119;48.288;8.726;2023-12-29T06:43:10;8.40;99.90
2226;DHT22;1119;48.288;8.726;2023-12-29T06:45:37;8.30;99.90
2226;DHT22;1119;48.288;8.726;2023-12-29T06:48:05;8.30;99.90
2226;DHT22;1119;48.288;8.726;2023-12-29T06:50:33;8.30;99.90
2226;DHT22;1119;48.288;8.726;2023-12-29T06:53:02;8.30;99.90
2226;DHT22;1119;48.288;8.726;2023-12-29T06:55:31;8.20;99.90
2226;DHT22;1119;48.288;8.726;2023-12-29T06:58:04;8.30;99.90
2226;DHT22;1119;48.288;8.726;2023-12-29T07:00:31;8.30;99.90
2226;DHT22;1119;48.288;8.726;2023-12-29T07:03:02;8.30;99.90
2226;DHT22;1119;48.288;8.726;2023-12-29T07:05:30;8.20;99.90
2226;DHT22;1119;48.288;8.726;2023-12-29T07:07:59;8.20;99.90
2226;DHT22;1119;48.288;8.726;2023-12-29T07:10:26;8.30;99.90
2226;DHT22;1119;48.288;8.726;2023-12-29T07:12:56;8.30;99.90
2226;DHT22;1119;48.288;8.726;2023-12-29T07:15:26;8.30;99.90
2226;DHT22;1119;48.288;8.726;2023-12-29T07:17:53;8.30;99.90
2226;DHT22;1119;48.288;8.726;2023-12-29T07:20:27;8.30;99.90
2226;DHT22;1119;48.288;8.726;2023-12-29T07:22:55;8.30;99.90
2226;DHT22;1119;48.288;8.726;2023-12-29T07:25:22;8.30;99.90
2226;DHT22;1119;48.288;8.726;2023-12-29T07:27:50;8.20;99.90
2226;DHT22;1119;48.288;8.726;2023-12-29T07:30:20;8.20;99.90
2226;DHT22;1119;48.288;8.726;2023-12-29T07:32:50;8.20;99.90
2226;DHT22;1119;48.288;8.726;2023-12-29T07:35:17;8.00;99.90
2226;DHT22;1119;48.288;8.726;2023-12-29T07:37:46;8.20;99.90
2226;DHT22;1119;48.288;8.726;2023-12-29T07:40:14;8.20;99.90
2226;DHT22;1119;48.288;8.726;2023-12-29T07:42:42;8.20;99.90
2226;DHT22;1119;48.288;8.726;2023-12-29T07:45:11;8.20;99.90
2226;DHT22;1119;48.288;8.726;2023-12-29T07:47:41;8.20;99.90
2226;DHT22;1119;48.288;8.726;2023-12-29T07:50:11;8.20;99.90
2226;DHT22;1119;48.288;8.726;2023-12-29T07:52:42;8.10;99.90
2226;DHT22;1119;48.288;8.726;2023-12-29T07:55:10;8.10;99.90
2226;DHT22;1119;48.288;8.726;2023-12-29T07:57:38;8.10;99.90
2226;DHT22;1119;48.288;8.726;2023-12-29T08:00:06;8.20;99.90
2226;DHT22;1119;48.288;8.726;2023-12-29T08:02:38;8.20;99.90
2226;DHT22;1119;48.288;8.726;2023-12-29T08:05:07;8.30;99.90
2226;DHT22;1119;48.288;8.726;2023-12-29T08:07:35;8.20;99.90
2226;DHT22;1119;48.288;8.726;2023-12-29T08:10:04;8.30;99.90
2226;DHT22;1119;48.288;8.726;2023-12-29T08:12:32;8.40;99.90
2226;DHT22;1119;48.288;8.726;2023-12-29T08:15:00;8.40;99.90
2226;DHT22;1119;48.288;8.726;2023-12-29T08:17:29;8.50;99.90
2226;DHT22;1119;48.288;8.726;2023-12-29T08:19:57;8.50;99.90
2226;DHT22;1119;48.288;8.726;2023-12-29T08:22:29;8.50;99.90
2226;DHT22;1119;48.288;8.726;2023-12-29T08:24:56;8.50;99.90
2226;DHT22;1119;48.288;8.726;2023-12-29T08:27:25;8.50;99.90
2226;DHT22;1119;48.288;8.726;2023-12-29T08:29:52;8.60;99.90
2226;DHT22;1119;48.288;8.726;2023-12-29T08:32:20;8.60;99.90
2226;DHT22;1119;48.288;8.726;2023-12-29T08:34:48;8.70;99.90
2226;DHT22;1119;48.288;8.726;2023-12-29T08:37:15;8.70;99.90
2226;DHT22;1119;48.288;8.726;2023-12-29T08:39:47;8.70;99.90
2226;DHT22;1119;48.288;8.726;2023-12-29T08:42:17;8.80;99.90
2226;DHT22;1119;48.288;8.726;2023-12-29T08:44:44;8.80;99.90
2226;DHT22;1119;48.288;8.726;2023-12-29T08:47:12;8.80;99.90
2226;DHT22;1119;48.288;8.726;2023-12-29T08:49:39;8.80;99.90
2226;DHT22;1119;48.288;8.726;2023-12-29T08:52:07;8.80;99.90
2226;DHT22;1119;48.288;8.726;2023-12-29T08:54:35;8.90;99.90
2226;DHT22;1119;48.288;8.726;2023-12-29T08:57:05;8.90;99.90
2226;DHT22;1119;48.288;8.726;2023-12-29T08:59:33;9.00;99.90
2226;DHT22;1119;48.288;8.726;2023-12-29T09:02:00;9.10;99.90
2226;DHT22;1119;48.288;8.726;2023-12-29T09:04:27;9.10;99.90
2226;DHT22;1119;48.288;8.726;2023-12-29T09:06:55;9.20;99.90
2226;DHT22;1119;48.288;8.726;2023-12-29T09:09:22;9.20;99.90
2226;DHT22;1119;48.288;8.726;2023-12-29T09:11:49;9.30;99.90
2226;DHT22;1119;48.288;8.726;2023-12-29T09:14:18;9.40;99.90
2226;DHT22;1119;48.288;8.726;2023-12-29T09:16:45;9.40;99.90
2226;DHT22;1119;48.288;8.726;2023-12-29T09:19:13;9.50;99.90
2226;DHT22;1119;48.288;8.726;2023-12-29T09:21:40;9.60;99.90
2226;DHT22;1119;48.288;8.726;2023-12-29T09:24:08;9.60;99.90
2226;DHT22;1119;48.288;8.726;2023-12-29T09:26:38;9.60;99.90
2226;DHT22;1119;48.288;8.726;2023-12-29T09:29:06;9.60;99.90
2226;DHT22;1119;48.288;8.726;2023-12-29T09:31:35;9.60;99.90
2226;DHT22;1119;48.288;8.726;2023-12-29T09:34:03;9.60;99.90
2226;DHT22;1119;48.288;8.726;2023-12-29T09:36:30;9.40;99.90
2226;DHT22;1119;48.288;8.726;2023-12-29T09:38:57;9.70;99.90
2226;DHT22;1119;48.288;8.726;2023-12-29T09:41:26;9.70;99.90
2226;DHT22;1119;48.288;8.726;2023-12-29T09:43:56;9.80;99.90
2226;DHT22;1119;48.288;8.726;2023-12-29T09:46:25;9.80;99.90
2226;DHT22;1119;48.288;8.726;2023-12-29T09:48:56;9.90;99.90
2226;DHT22;1119;48.288;8.726;2023-12-29T09:51:25;10.00;99.90
2226;DHT22;1119;48.288;8.726;2023-12-29T09:53:55;10.00;99.90
2226;DHT22;1119;48.288;8.726;2023-12-29T09:56:24;10.00;99.90
2226;DHT22;1119;48.288;8.726;2023-12-29T09:58:52;10.10;99.90
2226;DHT22;1119;48.288;8.726;2023-12-29T10:01:21;10.10;99.90
2226;DHT22;1119;48.288;8.726;2023-12-29T10:03:50;10.20;99.90
2226;DHT22;1119;48.288;8.726;2023-12-29T10:06:20;10.20;99.90
2226;DHT22;1119;48.288;8.726;2023-12-29T10:08:51;10.20;99.90
2226;DHT22;1119;48.288;8.726;2023-12-29T10:11:22;10.30;99.90
2226;DHT22;1119;48.288;8.726;2023-12-29T10:13:54;10.30;99.90
2226;DHT22;1119;48.288;8.726;2023-12-29T10:16:28;10.40;99.90
2226;DHT22;1119;48.288;8.726;2023-12-29T10:19:05;10.50;99.90
2226;DHT22;1119;48.288;8.726;2023-12-29T10:21:46;10.50;99.90
2226;DHT22;1119;48.288;8.726;2023-12-29T10:24:19;10.90;99.90
2226;DHT22;1119;48.288;8.726;2023-12-29T10:26:49;10.60;99.90
2226;DHT22;1119;48.288;8.726;2023-12-29T10:29:19;10.60;99.90
2226;DHT22;1119;48.288;8.726;2023-12-29T10:31:50;10.50;99.90
2226;DHT22;1119;48.288;8.726;2023-12-29T10:34:20;10.40;99.90
2226;DHT22;1119;48.288;8.726;2023-12-29T10:36:56;10.30;99.90
2226;DHT22;1119;48.288;8.726;2023-12-29T10:39:23;10.30;99.90
2226;DHT22;1119;48.288;8.726;2023-12-29T10:41:52;10.20;99.90
2226;DHT22;1119;48.288;8.726;2023-12-29T10:44:30;10.20;99.90
2226;DHT22;1119;48.288;8.726;2023-12-29T10:46:57;10.10;99.90
2226;DHT22;1119;48.288;8.726;2023-12-29T10:49:25;10.20;99.90
2226;DHT22;1119;48.288;8.726;2023-12-29T10:51:52;10.10;99.90
2226;DHT22;1119;48.288;8.726;2023-12-29T10:54:21;10.20;99.90
2226;DHT22;1119;48.288;8.726;2023-12-29T10:57:01;10.10;99.90
2226;DHT22;1119;48.288;8.726;2023-12-29T10:59:29;10.10;99.90
2226;DHT22;1119;48.288;8.726;2023-12-29T11:02:01;10.00;99.90
2226;DHT22;1119;48.288;8.726;2023-12-29T11:04:29;9.90;99.90
2226;DHT22;1119;48.288;8.726;2023-12-29T11:06:58;10.00;99.90
2226;DHT22;1119;48.288;8.726;2023-12-29T11:09:29;9.80;99.90
2226;DHT22;1119;48.288;8.726;2023-12-29T11:11:58;9.70;99.90
2226;DHT22;1119;48.288;8.726;2023-12-29T11:14:27;9.60;99.90
2226;DHT22;1119;48.288;8.726;2023-12-29T11:16:58;9.60;99.90
2226;DHT22;1119;48.288;8.726;2023-12-29T11:19:27;9.60;99.90
2226;DHT22;1119;48.288;8.726;2023-12-29T11:21:55;9.70;99.90
2226;DHT22;1119;48.288;8.726;2023-12-29T11:24:24;9.60;99.90
2226;DHT22;1119;48.288;8.726;2023-12-29T11:26:52;9.60;99.90
2226;DHT22;1119;48.288;8.726;2023-12-29T11:29:20;9.60;99.90
2226;DHT22;1119;48.288;8.726;2023-12-29T11:31:47;9.60;99.90
2226;DHT22;1119;48.288;8.726;2023-12-29T11:34:20;9.70;99.90
2226;DHT22;1119;48.288;8.726;2023-12-29T11:36:55;9.70;99.90
2226;DHT22;1119;48.288;8.726;2023-12-29T11:39:34;9.70;99.90
2226;DHT22;1119;48.288;8.726;2023-12-29T11:42:14;9.70;99.90
2226;DHT22;1119;48.288;8.726;2023-12-29T11:44:44;9.70;99.90
2226;DHT22;1119;48.288;8.726;2023-12-29T11:47:34;9.80;99.90
2226;DHT22;1119;48.288;8.726;2023-12-29T11:50:02;9.80;99.90
2226;DHT22;1119;48.288;8.726;2023-12-29T11:52:37;9.70;99.90
2226;DHT22;1119;48.288;8.726;2023-12-29T11:55:09;9.70;99.90
2226;DHT22;1119;48.288;8.726;2023-12-29T11:57:37;9.70;99.90
2226;DHT22;1119;48.288;8.726;2023-12-29T12:00:06;9.70;99.90
2226;DHT22;1119;48.288;8.726;2023-12-29T12:02:38;9.80;99.90
2226;DHT22;1119;48.288;8.726;2023-12-29T12:05:09;9.80;99.90
2226;DHT22;1119;48.288;8.726;2023-12-29T12:07:58;10.00;99.90
2226;DHT22;1119;48.288;8.726;2023-12-29T12:10:29;10.00;99.90
2226;DHT22;1119;48.288;8.726;2023-12-29T12:13:00;9.80;99.90
2226;DHT22;1119;48.288;8.726;2023-12-29T12:15:32;9.80;99.90
2226;DHT22;1119;48.288;8.726;2023-12-29T12:18:01;9.70;99.90
2226;DHT22;1119;48.288;8.726;2023-12-29T12:20:31;9.70;99.90
2226;DHT22;1119;48.288;8.726;2023-12-29T12:23:02;9.70;99.90
2226;DHT22;1119;48.288;8.726;2023-12-29T12:25:31;9.80;99.90
2226;DHT22;1119;48.288;8.726;2023-12-29T12:28:01;9.80;99.90
2226;DHT22;1119;48.288;8.726;2023-12-29T12:30:33;9.80;99.90
2226;DHT22;1119;48.288;8.726;2023-12-29T12:33:01;9.80;99.90
2226;DHT22;1119;48.288;8.726;2023-12-29T12:35:30;9.80;99.90
2226;DHT22;1119;48.288;8.726;2023-12-29T12:38:11;9.80;99.90
2226;DHT22;1119;48.288;8.726;2023-12-29T12:40:39;9.80;99.90
2226;DHT22;1119;48.288;8.726;2023-12-29T12:43:07;9.80;99.90
2226;DHT22;1119;48.288;8.726;2023-12-29T12:45:40;9.80;99.90
2226;DHT22;1119;48.288;8.726;2023-12-29T12:48:13;9.80;99.90
2226;DHT22;1119;48.288;8.726;2023-12-29T12:50:43;9.80;99.90
2226;DHT22;1119;48.288;8.726;2023-12-29T12:53:13;9.70;99.90
2226;DHT22;1119;48.288;8.726;2023-12-29T12:55:47;9.70;99.90
2226;DHT22;1119;48.288;8.726;2023-12-29T12:58:15;9.80;99.90
2226;DHT22;1119;48.288;8.726;2023-12-29T13:00:43;9.80;99.90
2226;DHT22;1119;48.288;8.726;2023-12-29T13:03:11;9.80;99.90
2226;DHT22;1119;48.288;8.726;2023-12-29T13:05:39;9.90;99.90
2226;DHT22;1119;48.288;8.726;2023-12-29T13:08:07;9.80;99.70
2226;DHT22;1119;48.288;8.726;2023-12-29T13:10:40;9.80;99.90
2226;DHT22;1119;48.288;8.726;2023-12-29T13:13:08;9.80;99.90
2226;DHT22;1119;48.288;8.726;2023-12-29T13:15:35;9.80;98.90
2226;DHT22;1119;48.288;8.726;2023-12-29T13:18:12;9.70;98.60
2226;DHT22;1119;48.288;8.726;2023-12-29T13:20:43;9.70;98.50
2226;DHT22;1119;48.288;8.726;2023-12-29T13:23:12;9.70;98.50
2226;DHT22;1119;48.288;8.726;2023-12-29T13:25:43;9.70;98.40
2226;DHT22;1119;48.288;8.726;2023-12-29T13:28:11;9.70;98.60
2226;DHT22;1119;48.288;8.726;2023-12-29T13:30:39;9.70;98.50
2226;DHT22;1119;48.288;8.726;2023-12-29T13:33:15;9.60;98.40
2226;DHT22;1119;48.288;8.726;2023-12-29T13:35:49;10.10;98.10
2226;DHT22;1119;48.288;8.726;2023-12-29T13:38:24;9.70;98.50
2226;DHT22;1119;48.288;8.726;2023-12-29T13:41:01;9.60;98.60
2226;DHT22;1119;48.288;8.726;2023-12-29T13:43:33;9.70;98.90
2226;DHT22;1119;48.288;8.726;2023-12-29T13:46:02;9.60;98.50
2226;DHT22;1119;48.288;8.726;2023-12-29T13:48:31;9.60;98.60
2226;DHT22;1119;48.288;8.726;2023-12-29T13:50:59;9.60;99.00
2226;DHT22;1119;48.288;8.726;2023-12-29T13:53:26;9.60;99.10
2226;DHT22;1119;48.288;8.726;2023-12-29T13:56:06;9.60;99.00
2226;DHT22;1119;48.288;8.726;2023-12-29T13:58:34;9.70;98.90
2226;DHT22;1119;48.288;8.726;2023-12-29T14:01:01;9.70;99.00
2226;DHT22;1119;48.288;8.726;2023-12-29T14:03:32;9.60;98.80
2226;DHT22;1119;48.288;8.726;2023-12-29T14:06:18;9.70;99.00
2226;DHT22;1119;48.288;8.726;2023-12-29T14:08:47;9.60;99.00
2226;DHT22;1119;48.288;8.726;2023-12-29T14:11:16;9.70;99.00
2226;DHT22;1119;48.288;8.726;2023-12-29T14:13:45;9.80;99.00
2226;DHT22;1119;48.288;8.726;2023-12-29T14:16:14;9.70;98.90
2226;DHT22;1119;48.288;8.726;2023-12-29T14:18:55;9.80;99.30
2226;DHT22;1119;48.288;8.726;2023-12-29T14:21:26;9.70;98.80
2226;DHT22;1119;48.288;8.726;2023-12-29T14:24:10;9.70;99.10
2226;DHT22;1119;48.288;8.726;2023-12-29T14:26:40;9.70;99.10
2226;DHT22;1119;48.288;8.726;2023-12-29T14:29:11;9.70;99.00
2226;DHT22;1119;48.288;8.726;2023-12-29T14:31:40;9.70;99.10
2226;DHT22;1119;48.288;8.726;2023-12-29T14:34:09;9.90;98.80
2226;DHT22;1119;48.288;8.726;2023-12-29T14:36:38;9.70;98.90
2226;DHT22;1119;48.288;8.726;2023-12-29T14:39:07;9.70;98.80
2226;DHT22;1119;48.288;8.726;2023-12-29T14:41:36;9.70;98.80
2226;DHT22;1119;48.288;8.726;2023-12-29T14:44:04;9.70;99.00
2226;DHT22;1119;48.288;8.726;2023-12-29T14:46:32;9.70;98.90
2226;DHT22;1119;48.288;8.726;2023-12-29T14:49:00;9.60;98.90
2226;DHT22;1119;48.288;8.726;2023-12-29T14:51:28;9.50;98.50
2226;DHT22;1119;48.288;8.726;2023-12-29T14:53:55;9.50;98.60
2226;DHT22;1119;48.288;8.726;2023-12-29T14:56:23;9.40;98.80
2226;DHT22;1119;48.288;8.726;2023-12-29T14:58:50;9.40;98.60
2226;DHT22;1119;48.288;8.726;2023-12-29T15:01:19;9.40;98.70
2226;DHT22;1119;48.288;8.726;2023-12-29T15:03:46;9.40;98.50
2226;DHT22;1119;48.288;8.726;2023-12-29T15:06:17;9.40;98.50
2226;DHT22;1119;48.288;8.726;2023-12-29T15:08:44;9.30;98.50
2226;DHT22;1119;48.288;8.726;2023-12-29T15:11:12;9.30;98.80
2226;DHT22;1119;48.288;8.726;2023-12-29T15:13:39;9.30;98.80
2226;DHT22;1119;48.288;8.726;2023-12-29T15:16:08;9.30;98.80
2226;DHT22;1119;48.288;8.726;2023-12-29T15:18:39;9.30;98.90
2226;DHT22;1119;48.288;8.726;2023-12-29T15:21:07;9.20;99.10
2226;DHT22;1119;48.288;8.726;2023-12-29T15:23:34;9.20;99.20
2226;DHT22;1119;48.288;8.726;2023-12-29T15:26:02;9.10;99.20
2226;DHT22;1119;48.288;8.726;2023-12-29T15:28:36;9.10;99.30
2226;DHT22;1119;48.288;8.726;2023-12-29T15:31:04;9.10;99.40
2226;DHT22;1119;48.288;8.726;2023-12-29T15:33:32;9.10;99.40
2226;DHT22;1119;48.288;8.726;2023-12-29T15:36:01;9.10;99.50
2226;DHT22;1119;48.288;8.726;2023-12-29T15:38:30;9.00;99.50
2226;DHT22;1119;48.288;8.726;2023-12-29T15:41:01;9.00;99.50
2226;DHT22;1119;48.288;8.726;2023-12-29T15:43:28;9.00;99.60
2226;DHT22;1119;48.288;8.726;2023-12-29T15:45:56;9.00;99.60
2226;DHT22;1119;48.288;8.726;2023-12-29T15:48:41;9.00;99.80
2226;DHT22;1119;48.288;8.726;2023-12-29T15:51:10;9.00;99.90
2226;DHT22;1119;48.288;8.726;2023-12-29T15:53:43;8.90;99.90
2226;DHT22;1119;48.288;8.726;2023-12-29T15:56:16;8.90;99.90
2226;DHT22;1119;48.288;8.726;2023-12-29T15:58:45;8.90;99.90
2226;DHT22;1119;48.288;8.726;2023-12-29T16:01:19;8.80;99.90
2226;DHT22;1119;48.288;8.726;2023-12-29T16:03:49;8.90;99.90
2226;DHT22;1119;48.288;8.726;2023-12-29T16:06:22;8.80;99.90
2226;DHT22;1119;48.288;8.726;2023-12-29T16:08:51;8.80;99.90
2226;DHT22;1119;48.288;8.726;2023-12-29T16:11:20;8.80;99.90
2226;DHT22;1119;48.288;8.726;2023-12-29T16:13:47;8.80;99.90
2226;DHT22;1119;48.288;8.726;2023-12-29T16:16:15;8.70;99.90
2226;DHT22;1119;48.288;8.726;2023-12-29T16:18:43;8.70;99.90
2226;DHT22;1119;48.288;8.726;2023-12-29T16:21:13;8.70;99.90
2226;DHT22;1119;48.288;8.726;2023-12-29T16:23:42;8.70;99.90
2226;DHT22;1119;48.288;8.726;2023-12-29T16:26:10;8.70;99.90
2226;DHT22;1119;48.288;8.726;2023-12-29T16:28:40;8.70;99.90
2226;DHT22;1119;48.288;8.726;2023-12-29T16:31:09;8.70;99.90
2226;DHT22;1119;48.288;8.726;2023-12-29T16:33:36;8.90;99.90